sensor_id;sensor_type;location;lat;lon;timestamp;P1;durP1;ratioP1;P2;durP2;ratioP2
4732;SDS011;2380;53.668;10.008;2022-08-19T00:02:09;30.63;;;18.17;;
4732;SDS011;2380;53.668;10.008;2022-08-19T00:04:41;27.60;;;17.77;;
4732;SDS011;2380;53.668;10.008;2022-08-19T00:07:13;28.93;;;18.20;;
4732;SDS011;2380;53.668;10.008;2022-08-19T00:09:42;27.33;;;17.43;;
4732;SDS011;2380;53.668;10.008;2022-08-19T00:12:12;23.40;;;16.67;;
4732;SDS011;2380;53.668;10.008;2022-08-19T00:14:41;24.37;;;16.60;;
4732;SDS011;2380;53.668;10.008;2022-08-19T00:17:11;29.33;;;18.77;;
4732;SDS011;2380;53.668;10.008;2022-08-19T00:19:43;28.40;;;17.43;;
4732;SDS011;2380;53.668;10.008;2022-08-19T00:22:13;29.17;;;17.60;;
4732;SDS011;2380;53.668;10.008;2022-08-19T00:24:44;26.03;;;17.10;;
4732;SDS011;2380;53.668;10.008;2022-08-19T00:27:16;26.37;;;17.90;;
4732;SDS011;2380;53.668;10.008;2022-08-19T00:29:52;32.43;;;20.27;;
4732;SDS011;2380;53.668;10.008;2022-08-19T00:32:22;30.97;;;17.30;;
4732;SDS011;2380;53.668;10.008;2022-08-19T00:34:55;31.53;;;20.20;;
4732;SDS011;2380;53.668;10.008;2022-08-19T00:37:24;34.93;;;21.03;;
4732;SDS011;2380;53.668;10.008;2022-08-19T00:39:54;35.27;;;19.90;;
4732;SDS011;2380;53.668;10.008;2022-08-19T00:42:24;26.87;;;18.27;;
4732;SDS011;2380;53.668;10.008;2022-08-19T00:44:54;26.80;;;17.83;;
4732;SDS011;2380;53.668;10.008;2022-08-19T00:47:24;31.10;;;19.60;;
4732;SDS011;2380;53.668;10.008;2022-08-19T00:49:56;37.03;;;18.73;;
4732;SDS011;2380;53.668;10.008;2022-08-19T00:52:28;31.23;;;19.27;;
4732;SDS011;2380;53.668;10.008;2022-08-19T00:54:59;33.83;;;21.10;;
4732;SDS011;2380;53.668;10.008;2022-08-19T00:57:30;39.97;;;22.10;;
4732;SDS011;2380;53.668;10.008;2022-08-19T01:00:04;39.47;;;22.80;;
4732;SDS011;2380;53.668;10.008;2022-08-19T01:02:36;36.60;;;22.43;;
4732;SDS011;2380;53.668;10.008;2022-08-19T01:05:09;32.30;;;21.50;;
4732;SDS011;2380;53.668;10.008;2022-08-19T01:07:41;34.80;;;21.20;;
4732;SDS011;2380;53.668;10.008;2022-08-19T01:10:12;32.10;;;19.20;;
4732;SDS011;2380;53.668;10.008;2022-08-19T01:12:45;39.17;;;21.27;;
4732;SDS011;2380;53.668;10.008;2022-08-19T01:15:16;41.67;;;23.60;;
4732;SDS011;2380;53.668;10.008;2022-08-19T01:17:46;48.37;;;26.80;;
4732;SDS011;2380;53.668;10.008;2022-08-19T01:20:20;45.77;;;27.03;;
4732;SDS011;2380;53.668;10.008;2022-08-19T01:22:55;51.27;;;28.73;;
4732;SDS011;2380;53.668;10.008;2022-08-19T01:25:27;45.77;;;26.80;;
4732;SDS011;2380;53.668;10.008;2022-08-19T01:27:59;49.00;;;26.53;;
4732;SDS011;2380;53.668;10.008;2022-08-19T01:30:36;44.90;;;26.90;;
4732;SDS011;2380;53.668;10.008;2022-08-19T01:33:09;53.90;;;26.37;;
4732;SDS011;2380;53.668;10.008;2022-08-19T01:35:39;47.10;;;26.30;;
4732;SDS011;2380;53.668;10.008;2022-08-19T01:38:18;43.00;;;25.20;;
4732;SDS011;2380;53.668;10.008;2022-08-19T01:40:50;46.93;;;25.07;;
4732;SDS011;2380;53.668;10.008;2022-08-19T01:43:20;41.90;;;23.83;;
4732;SDS011;2380;53.668;10.008;2022-08-19T01:45:49;43.10;;;23.77;;
4732;SDS011;2380;53.668;10.008;2022-08-19T01:48:19;38.90;;;24.13;;
4732;SDS011;2380;53.668;10.008;2022-08-19T01:50:49;39.57;;;23.80;;
4732;SDS011;2380;53.668;10.008;2022-08-19T01:53:21;43.40;;;24.30;;
4732;SDS011;2380;53.668;10.008;2022-08-19T01:55:55;43.57;;;24.73;;
4732;SDS011;2380;53.668;10.008;2022-08-19T01:58:26;40.87;;;24.33;;
4732;SDS011;2380;53.668;10.008;2022-08-19T02:00:58;43.13;;;25.37;;
4732;SDS011;2380;53.668;10.008;2022-08-19T02:03:28;45.40;;;24.60;;
4732;SDS011;2380;53.668;10.008;2022-08-19T02:05:58;46.20;;;23.50;;
4732;SDS011;2380;53.668;10.008;2022-08-19T02:08:32;46.00;;;24.30;;
4732;SDS011;2380;53.668;10.008;2022-08-19T02:11:03;45.33;;;24.30;;
4732;SDS011;2380;53.668;10.008;2022-08-19T02:13:34;43.50;;;23.80;;
4732;SDS011;2380;53.668;10.008;2022-08-19T02:16:03;47.97;;;23.80;;
4732;SDS011;2380;53.668;10.008;2022-08-19T02:18:33;45.60;;;23.27;;
4732;SDS011;2380;53.668;10.008;2022-08-19T02:21:02;42.43;;;24.90;;
4732;SDS011;2380;53.668;10.008;2022-08-19T02:23:35;60.90;;;30.50;;
4732;SDS011;2380;53.668;10.008;2022-08-19T02:26:05;59.23;;;30.67;;
4732;SDS011;2380;53.668;10.008;2022-08-19T02:28:34;52.23;;;26.90;;
4732;SDS011;2380;53.668;10.008;2022-08-19T02:31:08;47.03;;;23.13;;
4732;SDS011;2380;53.668;10.008;2022-08-19T02:33:38;60.87;;;28.73;;
4732;SDS011;2380;53.668;10.008;2022-08-19T02:36:08;65.93;;;40.27;;
4732;SDS011;2380;53.668;10.008;2022-08-19T02:38:43;64.07;;;27.97;;
4732;SDS011;2380;53.668;10.008;2022-08-19T02:41:20;53.90;;;27.43;;
4732;SDS011;2380;53.668;10.008;2022-08-19T02:43:52;58.67;;;27.37;;
4732;SDS011;2380;53.668;10.008;2022-08-19T02:46:44;56.90;;;25.23;;
4732;SDS011;2380;53.668;10.008;2022-08-19T02:49:18;68.07;;;29.70;;
4732;SDS011;2380;53.668;10.008;2022-08-19T02:51:47;59.23;;;28.50;;
4732;SDS011;2380;53.668;10.008;2022-08-19T02:54:20;67.97;;;29.50;;
4732;SDS011;2380;53.668;10.008;2022-08-19T02:56:52;71.27;;;28.10;;
4732;SDS011;2380;53.668;10.008;2022-08-19T02:59:21;57.97;;;28.67;;
4732;SDS011;2380;53.668;10.008;2022-08-19T03:01:52;57.33;;;28.07;;
4732;SDS011;2380;53.668;10.008;2022-08-19T03:04:22;58.20;;;27.93;;
4732;SDS011;2380;53.668;10.008;2022-08-19T03:06:51;66.57;;;29.50;;
4732;SDS011;2380;53.668;10.008;2022-08-19T03:09:30;63.80;;;28.13;;
4732;SDS011;2380;53.668;10.008;2022-08-19T03:11:59;59.90;;;27.70;;
4732;SDS011;2380;53.668;10.008;2022-08-19T03:14:30;54.53;;;27.40;;
4732;SDS011;2380;53.668;10.008;2022-08-19T03:17:00;57.10;;;25.83;;
4732;SDS011;2380;53.668;10.008;2022-08-19T03:19:30;55.40;;;25.10;;
4732;SDS011;2380;53.668;10.008;2022-08-19T03:22:00;56.93;;;26.83;;
4732;SDS011;2380;53.668;10.008;2022-08-19T03:24:33;51.53;;;25.17;;
4732;SDS011;2380;53.668;10.008;2022-08-19T03:27:03;56.93;;;27.73;;
4732;SDS011;2380;53.668;10.008;2022-08-19T03:29:32;58.23;;;31.43;;
4732;SDS011;2380;53.668;10.008;2022-08-19T03:32:09;77.30;;;37.90;;
4732;SDS011;2380;53.668;10.008;2022-08-19T03:34:58;39.83;;;23.90;;
4732;SDS011;2380;53.668;10.008;2022-08-19T03:37:28;47.83;;;25.33;;
4732;SDS011;2380;53.668;10.008;2022-08-19T03:40:00;54.53;;;28.90;;
4732;SDS011;2380;53.668;10.008;2022-08-19T03:42:31;50.70;;;24.80;;
4732;SDS011;2380;53.668;10.008;2022-08-19T03:45:21;54.43;;;24.77;;
4732;SDS011;2380;53.668;10.008;2022-08-19T03:47:50;62.40;;;29.03;;
4732;SDS011;2380;53.668;10.008;2022-08-19T03:50:20;50.87;;;25.57;;
4732;SDS011;2380;53.668;10.008;2022-08-19T03:52:50;44.73;;;25.27;;
4732;SDS011;2380;53.668;10.008;2022-08-19T03:55:23;55.73;;;25.33;;
4732;SDS011;2380;53.668;10.008;2022-08-19T03:57:52;50.13;;;28.00;;
4732;SDS011;2380;53.668;10.008;2022-08-19T04:00:24;50.27;;;24.60;;
4732;SDS011;2380;53.668;10.008;2022-08-19T04:02:54;49.23;;;24.73;;
4732;SDS011;2380;53.668;10.008;2022-08-19T04:05:26;45.87;;;24.50;;
4732;SDS011;2380;53.668;10.008;2022-08-19T04:07:57;46.07;;;24.13;;
4732;SDS011;2380;53.668;10.008;2022-08-19T04:10:29;44.43;;;22.00;;
4732;SDS011;2380;53.668;10.008;2022-08-19T04:12:58;49.27;;;23.17;;
4732;SDS011;2380;53.668;10.008;2022-08-19T04:15:28;53.93;;;26.37;;
4732;SDS011;2380;53.668;10.008;2022-08-19T04:18:01;59.03;;;28.27;;
4732;SDS011;2380;53.668;10.008;2022-08-19T04:20:37;51.90;;;26.33;;
4732;SDS011;2380;53.668;10.008;2022-08-19T04:23:08;56.43;;;28.50;;
4732;SDS011;2380;53.668;10.008;2022-08-19T04:25:41;61.40;;;27.00;;
4732;SDS011;2380;53.668;10.008;2022-08-19T04:28:12;64.90;;;29.67;;
4732;SDS011;2380;53.668;10.008;2022-08-19T04:30:43;66.77;;;29.70;;
4732;SDS011;2380;53.668;10.008;2022-08-19T04:33:14;58.57;;;29.90;;
4732;SDS011;2380;53.668;10.008;2022-08-19T04:35:54;65.63;;;29.80;;
4732;SDS011;2380;53.668;10.008;2022-08-19T04:38:24;63.10;;;29.17;;
4732;SDS011;2380;53.668;10.008;2022-08-19T04:40:56;64.03;;;28.37;;
4732;SDS011;2380;53.668;10.008;2022-08-19T04:43:38;69.73;;;30.90;;
4732;SDS011;2380;53.668;10.008;2022-08-19T04:46:09;63.27;;;29.00;;
4732;SDS011;2380;53.668;10.008;2022-08-19T04:48:59;68.03;;;29.73;;
4732;SDS011;2380;53.668;10.008;2022-08-19T04:51:39;55.53;;;29.80;;
4732;SDS011;2380;53.668;10.008;2022-08-19T04:54:10;76.43;;;34.53;;
4732;SDS011;2380;53.668;10.008;2022-08-19T04:56:49;70.80;;;32.60;;
4732;SDS011;2380;53.668;10.008;2022-08-19T04:59:19;63.67;;;31.70;;
4732;SDS011;2380;53.668;10.008;2022-08-19T05:01:49;75.57;;;34.80;;
4732;SDS011;2380;53.668;10.008;2022-08-19T05:04:19;75.97;;;38.60;;
4732;SDS011;2380;53.668;10.008;2022-08-19T05:06:49;76.17;;;36.50;;
4732;SDS011;2380;53.668;10.008;2022-08-19T05:09:25;77.40;;;36.93;;
4732;SDS011;2380;53.668;10.008;2022-08-19T05:12:17;85.97;;;37.60;;
4732;SDS011;2380;53.668;10.008;2022-08-19T05:14:51;69.87;;;34.90;;
4732;SDS011;2380;53.668;10.008;2022-08-19T05:17:20;80.20;;;37.13;;
4732;SDS011;2380;53.668;10.008;2022-08-19T05:19:54;70.97;;;36.30;;
4732;SDS011;2380;53.668;10.008;2022-08-19T05:22:36;68.13;;;35.67;;
4732;SDS011;2380;53.668;10.008;2022-08-19T05:25:07;73.40;;;33.80;;
4732;SDS011;2380;53.668;10.008;2022-08-19T05:27:42;85.50;;;34.93;;
4732;SDS011;2380;53.668;10.008;2022-08-19T05:30:11;72.00;;;34.53;;
4732;SDS011;2380;53.668;10.008;2022-08-19T05:32:41;76.37;;;34.37;;
4732;SDS011;2380;53.668;10.008;2022-08-19T05:35:11;67.93;;;32.40;;
4732;SDS011;2380;53.668;10.008;2022-08-19T05:37:41;61.33;;;29.60;;
4732;SDS011;2380;53.668;10.008;2022-08-19T05:40:10;61.67;;;30.60;;
4732;SDS011;2380;53.668;10.008;2022-08-19T05:42:43;67.70;;;30.27;;
4732;SDS011;2380;53.668;10.008;2022-08-19T05:45:20;53.10;;;28.23;;
4732;SDS011;2380;53.668;10.008;2022-08-19T05:47:50;48.70;;;28.00;;
4732;SDS011;2380;53.668;10.008;2022-08-19T05:50:20;53.73;;;28.80;;
4732;SDS011;2380;53.668;10.008;2022-08-19T05:52:50;52.20;;;27.60;;
4732;SDS011;2380;53.668;10.008;2022-08-19T05:55:20;59.03;;;28.63;;
4732;SDS011;2380;53.668;10.008;2022-08-19T05:57:52;50.40;;;26.97;;
4732;SDS011;2380;53.668;10.008;2022-08-19T06:00:22;47.07;;;25.80;;
4732;SDS011;2380;53.668;10.008;2022-08-19T06:02:52;49.83;;;26.13;;
4732;SDS011;2380;53.668;10.008;2022-08-19T06:05:22;43.97;;;24.77;;
4732;SDS011;2380;53.668;10.008;2022-08-19T06:07:52;43.97;;;25.03;;
4732;SDS011;2380;53.668;10.008;2022-08-19T06:10:21;49.13;;;26.43;;
4732;SDS011;2380;53.668;10.008;2022-08-19T06:12:55;51.37;;;28.87;;
4732;SDS011;2380;53.668;10.008;2022-08-19T06:15:24;47.60;;;25.77;;
4732;SDS011;2380;53.668;10.008;2022-08-19T06:17:54;48.03;;;25.13;;
4732;SDS011;2380;53.668;10.008;2022-08-19T06:20:24;50.00;;;26.43;;
4732;SDS011;2380;53.668;10.008;2022-08-19T06:23:13;48.80;;;25.70;;
4732;SDS011;2380;53.668;10.008;2022-08-19T06:25:44;52.50;;;26.63;;
4732;SDS011;2380;53.668;10.008;2022-08-19T06:28:16;45.67;;;26.63;;
4732;SDS011;2380;53.668;10.008;2022-08-19T06:30:46;49.53;;;25.07;;
4732;SDS011;2380;53.668;10.008;2022-08-19T06:33:16;51.37;;;27.97;;
4732;SDS011;2380;53.668;10.008;2022-08-19T06:35:46;51.77;;;26.87;;
4732;SDS011;2380;53.668;10.008;2022-08-19T06:38:15;53.37;;;27.63;;
4732;SDS011;2380;53.668;10.008;2022-08-19T06:40:46;53.30;;;29.03;;
4732;SDS011;2380;53.668;10.008;2022-08-19T06:43:18;55.37;;;28.50;;
4732;SDS011;2380;53.668;10.008;2022-08-19T06:45:54;45.70;;;25.27;;
4732;SDS011;2380;53.668;10.008;2022-08-19T06:48:26;44.60;;;24.77;;
4732;SDS011;2380;53.668;10.008;2022-08-19T06:50:55;71.97;;;38.80;;
4732;SDS011;2380;53.668;10.008;2022-08-19T06:53:25;51.73;;;25.37;;
4732;SDS011;2380;53.668;10.008;2022-08-19T06:55:55;58.77;;;27.00;;
4732;SDS011;2380;53.668;10.008;2022-08-19T06:58:29;47.47;;;26.07;;
4732;SDS011;2380;53.668;10.008;2022-08-19T07:01:01;46.60;;;25.93;;
4732;SDS011;2380;53.668;10.008;2022-08-19T07:03:35;49.20;;;25.40;;
4732;SDS011;2380;53.668;10.008;2022-08-19T07:06:06;49.47;;;25.13;;
4732;SDS011;2380;53.668;10.008;2022-08-19T07:08:57;44.63;;;24.63;;
4732;SDS011;2380;53.668;10.008;2022-08-19T07:11:27;72.80;;;39.63;;
4732;SDS011;2380;53.668;10.008;2022-08-19T07:14:02;53.20;;;25.70;;
4732;SDS011;2380;53.668;10.008;2022-08-19T07:16:44;46.37;;;25.90;;
4732;SDS011;2380;53.668;10.008;2022-08-19T07:19:14;46.37;;;24.97;;
4732;SDS011;2380;53.668;10.008;2022-08-19T07:21:45;51.00;;;23.70;;
4732;SDS011;2380;53.668;10.008;2022-08-19T07:24:16;39.77;;;24.40;;
4732;SDS011;2380;53.668;10.008;2022-08-19T07:26:46;39.87;;;22.40;;
4732;SDS011;2380;53.668;10.008;2022-08-19T07:29:20;41.50;;;21.37;;
4732;SDS011;2380;53.668;10.008;2022-08-19T07:31:54;47.47;;;23.03;;
4732;SDS011;2380;53.668;10.008;2022-08-19T07:34:26;39.50;;;21.50;;
4732;SDS011;2380;53.668;10.008;2022-08-19T07:36:56;36.90;;;21.23;;
4732;SDS011;2380;53.668;10.008;2022-08-19T07:39:27;34.10;;;20.50;;
4732;SDS011;2380;53.668;10.008;2022-08-19T07:41:58;44.93;;;22.80;;
4732;SDS011;2380;53.668;10.008;2022-08-19T07:44:31;35.27;;;21.00;;
4732;SDS011;2380;53.668;10.008;2022-08-19T07:47:01;38.30;;;20.83;;
4732;SDS011;2380;53.668;10.008;2022-08-19T07:49:30;37.93;;;20.80;;
4732;SDS011;2380;53.668;10.008;2022-08-19T07:52:05;44.63;;;21.20;;
4732;SDS011;2380;53.668;10.008;2022-08-19T07:54:36;43.47;;;21.03;;
4732;SDS011;2380;53.668;10.008;2022-08-19T07:57:07;71.67;;;30.53;;
4732;SDS011;2380;53.668;10.008;2022-08-19T07:59:40;44.20;;;20.60;;
4732;SDS011;2380;53.668;10.008;2022-08-19T08:02:09;36.17;;;20.20;;
4732;SDS011;2380;53.668;10.008;2022-08-19T08:04:39;40.47;;;21.23;;
4732;SDS011;2380;53.668;10.008;2022-08-19T08:07:21;41.07;;;21.70;;
4732;SDS011;2380;53.668;10.008;2022-08-19T08:10:03;70.40;;;31.60;;
4732;SDS011;2380;53.668;10.008;2022-08-19T08:12:46;48.00;;;23.80;;
4732;SDS011;2380;53.668;10.008;2022-08-19T08:15:38;48.27;;;21.63;;
4732;SDS011;2380;53.668;10.008;2022-08-19T08:18:09;38.07;;;21.97;;
4732;SDS011;2380;53.668;10.008;2022-08-19T08:20:39;41.40;;;20.93;;
4732;SDS011;2380;53.668;10.008;2022-08-19T08:23:09;88.23;;;33.13;;
4732;SDS011;2380;53.668;10.008;2022-08-19T08:25:56;52.27;;;26.10;;
4732;SDS011;2380;53.668;10.008;2022-08-19T08:28:28;65.87;;;28.93;;
4732;SDS011;2380;53.668;10.008;2022-08-19T08:31:00;32.90;;;19.30;;
4732;SDS011;2380;53.668;10.008;2022-08-19T08:33:35;33.83;;;18.53;;
4732;SDS011;2380;53.668;10.008;2022-08-19T08:36:08;65.13;;;27.00;;
4732;SDS011;2380;53.668;10.008;2022-08-19T08:38:37;76.10;;;29.57;;
4732;SDS011;2380;53.668;10.008;2022-08-19T08:41:09;48.83;;;22.73;;
4732;SDS011;2380;53.668;10.008;2022-08-19T08:43:45;37.83;;;19.33;;
4732;SDS011;2380;53.668;10.008;2022-08-19T08:46:20;37.30;;;19.97;;
4732;SDS011;2380;53.668;10.008;2022-08-19T08:48:59;37.70;;;20.23;;
4732;SDS011;2380;53.668;10.008;2022-08-19T08:51:36;45.17;;;23.07;;
4732;SDS011;2380;53.668;10.008;2022-08-19T08:54:30;51.13;;;24.23;;
4732;SDS011;2380;53.668;10.008;2022-08-19T08:57:03;43.70;;;22.87;;
4732;SDS011;2380;53.668;10.008;2022-08-19T08:59:35;48.13;;;23.97;;
4732;SDS011;2380;53.668;10.008;2022-08-19T09:02:10;32.90;;;19.63;;
4732;SDS011;2380;53.668;10.008;2022-08-19T09:04:39;57.23;;;26.77;;
4732;SDS011;2380;53.668;10.008;2022-08-19T09:07:13;40.30;;;20.87;;
4732;SDS011;2380;53.668;10.008;2022-08-19T09:10:02;39.07;;;20.60;;
4732;SDS011;2380;53.668;10.008;2022-08-19T09:12:38;50.83;;;23.70;;
4732;SDS011;2380;53.668;10.008;2022-08-19T09:15:12;37.63;;;20.00;;
4732;SDS011;2380;53.668;10.008;2022-08-19T09:17:45;44.33;;;22.40;;
4732;SDS011;2380;53.668;10.008;2022-08-19T09:20:16;34.37;;;18.57;;
4732;SDS011;2380;53.668;10.008;2022-08-19T09:22:51;34.30;;;19.60;;
4732;SDS011;2380;53.668;10.008;2022-08-19T09:25:21;37.57;;;20.67;;
4732;SDS011;2380;53.668;10.008;2022-08-19T09:27:54;34.60;;;19.03;;
4732;SDS011;2380;53.668;10.008;2022-08-19T09:30:34;42.43;;;21.13;;
4732;SDS011;2380;53.668;10.008;2022-08-19T09:33:11;31.60;;;17.70;;
4732;SDS011;2380;53.668;10.008;2022-08-19T09:35:40;34.13;;;19.87;;
4732;SDS011;2380;53.668;10.008;2022-08-19T09:38:19;102.67;;;37.47;;
4732;SDS011;2380;53.668;10.008;2022-08-19T09:40:49;32.23;;;17.03;;
4732;SDS011;2380;53.668;10.008;2022-08-19T09:43:18;33.50;;;18.97;;
4732;SDS011;2380;53.668;10.008;2022-08-19T09:45:59;32.03;;;19.70;;
4732;SDS011;2380;53.668;10.008;2022-08-19T09:48:31;34.80;;;18.90;;
4732;SDS011;2380;53.668;10.008;2022-08-19T09:51:04;31.83;;;17.80;;
4732;SDS011;2380;53.668;10.008;2022-08-19T09:53:37;29.40;;;18.43;;
4732;SDS011;2380;53.668;10.008;2022-08-19T09:56:07;32.80;;;18.27;;
4732;SDS011;2380;53.668;10.008;2022-08-19T09:58:37;33.80;;;19.47;;
4732;SDS011;2380;53.668;10.008;2022-08-19T10:01:07;38.40;;;21.83;;
4732;SDS011;2380;53.668;10.008;2022-08-19T10:03:39;34.07;;;20.07;;
4732;SDS011;2380;53.668;10.008;2022-08-19T10:06:09;33.63;;;19.77;;
4732;SDS011;2380;53.668;10.008;2022-08-19T10:08:42;31.50;;;19.43;;
4732;SDS011;2380;53.668;10.008;2022-08-19T10:11:15;33.17;;;19.27;;
4732;SDS011;2380;53.668;10.008;2022-08-19T10:14:02;36.93;;;21.40;;
4732;SDS011;2380;53.668;10.008;2022-08-19T10:16:32;38.37;;;20.73;;
4732;SDS011;2380;53.668;10.008;2022-08-19T10:19:07;29.57;;;17.53;;
4732;SDS011;2380;53.668;10.008;2022-08-19T10:21:37;36.60;;;19.53;;
4732;SDS011;2380;53.668;10.008;2022-08-19T10:24:08;36.00;;;19.63;;
4732;SDS011;2380;53.668;10.008;2022-08-19T10:26:38;34.40;;;18.83;;
4732;SDS011;2380;53.668;10.008;2022-08-19T10:29:12;32.03;;;18.57;;
4732;SDS011;2380;53.668;10.008;2022-08-19T10:31:58;32.53;;;18.80;;
4732;SDS011;2380;53.668;10.008;2022-08-19T10:34:31;32.67;;;17.90;;
4732;SDS011;2380;53.668;10.008;2022-08-19T10:37:13;28.70;;;18.27;;
4732;SDS011;2380;53.668;10.008;2022-08-19T10:39:56;40.80;;;20.33;;
4732;SDS011;2380;53.668;10.008;2022-08-19T10:42:25;32.40;;;19.10;;
4732;SDS011;2380;53.668;10.008;2022-08-19T10:44:57;47.83;;;23.03;;
4732;SDS011;2380;53.668;10.008;2022-08-19T10:47:30;33.77;;;18.93;;
4732;SDS011;2380;53.668;10.008;2022-08-19T10:50:02;31.53;;;19.17;;
4732;SDS011;2380;53.668;10.008;2022-08-19T10:52:45;29.40;;;17.83;;
4732;SDS011;2380;53.668;10.008;2022-08-19T10:55:16;27.43;;;17.73;;
4732;SDS011;2380;53.668;10.008;2022-08-19T10:57:59;40.00;;;21.50;;
4732;SDS011;2380;53.668;10.008;2022-08-19T11:00:29;31.20;;;19.80;;
4732;SDS011;2380;53.668;10.008;2022-08-19T11:02:59;44.53;;;23.17;;
4732;SDS011;2380;53.668;10.008;2022-08-19T11:05:31;28.90;;;18.13;;
4732;SDS011;2380;53.668;10.008;2022-08-19T11:08:05;46.30;;;23.43;;
4732;SDS011;2380;53.668;10.008;2022-08-19T11:10:49;30.70;;;17.50;;
4732;SDS011;2380;53.668;10.008;2022-08-19T11:13:20;24.40;;;16.67;;
4732;SDS011;2380;53.668;10.008;2022-08-19T11:15:55;87.00;;;34.40;;
4732;SDS011;2380;53.668;10.008;2022-08-19T11:18:32;29.47;;;19.47;;
4732;SDS011;2380;53.668;10.008;2022-08-19T11:21:09;23.93;;;15.33;;
4732;SDS011;2380;53.668;10.008;2022-08-19T11:23:40;32.30;;;19.00;;
4732;SDS011;2380;53.668;10.008;2022-08-19T11:26:10;27.47;;;17.03;;
4732;SDS011;2380;53.668;10.008;2022-08-19T11:28:40;31.50;;;17.87;;
4732;SDS011;2380;53.668;10.008;2022-08-19T11:31:10;26.90;;;17.60;;
4732;SDS011;2380;53.668;10.008;2022-08-19T11:33:40;25.90;;;15.60;;
4732;SDS011;2380;53.668;10.008;2022-08-19T11:36:15;22.70;;;14.93;;
4732;SDS011;2380;53.668;10.008;2022-08-19T11:38:46;23.47;;;13.37;;
4732;SDS011;2380;53.668;10.008;2022-08-19T11:41:17;26.60;;;16.80;;
4732;SDS011;2380;53.668;10.008;2022-08-19T11:43:49;23.03;;;13.23;;
4732;SDS011;2380;53.668;10.008;2022-08-19T11:46:20;22.63;;;12.70;;
4732;SDS011;2380;53.668;10.008;2022-08-19T11:48:51;40.70;;;25.87;;
4732;SDS011;2380;53.668;10.008;2022-08-19T11:51:23;21.47;;;13.73;;
4732;SDS011;2380;53.668;10.008;2022-08-19T11:53:54;17.50;;;12.60;;
4732;SDS011;2380;53.668;10.008;2022-08-19T11:56:25;24.67;;;13.50;;
4732;SDS011;2380;53.668;10.008;2022-08-19T11:58:56;18.40;;;11.67;;
4732;SDS011;2380;53.668;10.008;2022-08-19T12:01:25;20.87;;;12.23;;
4732;SDS011;2380;53.668;10.008;2022-08-19T12:03:55;20.10;;;13.10;;
4732;SDS011;2380;53.668;10.008;2022-08-19T12:06:29;24.30;;;14.00;;
4732;SDS011;2380;53.668;10.008;2022-08-19T12:09:02;17.50;;;12.30;;
4732;SDS011;2380;53.668;10.008;2022-08-19T12:11:33;17.33;;;12.70;;
4732;SDS011;2380;53.668;10.008;2022-08-19T12:14:03;19.50;;;13.63;;
4732;SDS011;2380;53.668;10.008;2022-08-19T12:16:32;17.10;;;11.87;;
4732;SDS011;2380;53.668;10.008;2022-08-19T12:19:13;22.33;;;14.80;;
4732;SDS011;2380;53.668;10.008;2022-08-19T12:21:50;23.50;;;13.83;;
4732;SDS011;2380;53.668;10.008;2022-08-19T12:24:23;19.20;;;14.00;;
4732;SDS011;2380;53.668;10.008;2022-08-19T12:26:52;19.20;;;13.03;;
4732;SDS011;2380;53.668;10.008;2022-08-19T12:29:28;16.90;;;13.20;;
4732;SDS011;2380;53.668;10.008;2022-08-19T12:31:58;25.10;;;13.70;;
4732;SDS011;2380;53.668;10.008;2022-08-19T12:34:29;31.93;;;20.30;;
4732;SDS011;2380;53.668;10.008;2022-08-19T12:37:03;22.37;;;13.67;;
4732;SDS011;2380;53.668;10.008;2022-08-19T12:39:34;24.00;;;15.63;;
4732;SDS011;2380;53.668;10.008;2022-08-19T12:42:05;16.47;;;11.50;;
4732;SDS011;2380;53.668;10.008;2022-08-19T12:44:35;21.83;;;13.90;;
4732;SDS011;2380;53.668;10.008;2022-08-19T12:47:08;17.00;;;11.63;;
4732;SDS011;2380;53.668;10.008;2022-08-19T12:49:40;32.53;;;16.33;;
4732;SDS011;2380;53.668;10.008;2022-08-19T12:52:22;15.93;;;12.40;;
4732;SDS011;2380;53.668;10.008;2022-08-19T12:54:54;22.27;;;13.97;;
4732;SDS011;2380;53.668;10.008;2022-08-19T12:57:25;18.10;;;12.53;;
4732;SDS011;2380;53.668;10.008;2022-08-19T12:59:59;21.33;;;13.80;;
4732;SDS011;2380;53.668;10.008;2022-08-19T13:02:31;17.33;;;13.00;;
4732;SDS011;2380;53.668;10.008;2022-08-19T13:05:05;22.60;;;15.50;;
4732;SDS011;2380;53.668;10.008;2022-08-19T13:07:40;18.00;;;13.10;;
4732;SDS011;2380;53.668;10.008;2022-08-19T13:10:10;16.27;;;12.87;;
4732;SDS011;2380;53.668;10.008;2022-08-19T13:12:41;17.20;;;11.40;;
4732;SDS011;2380;53.668;10.008;2022-08-19T13:15:11;18.10;;;12.20;;
4732;SDS011;2380;53.668;10.008;2022-08-19T13:17:44;19.23;;;13.13;;
4732;SDS011;2380;53.668;10.008;2022-08-19T13:20:14;23.00;;;15.00;;
4732;SDS011;2380;53.668;10.008;2022-08-19T13:22:47;15.93;;;11.97;;
4732;SDS011;2380;53.668;10.008;2022-08-19T13:25:17;12.60;;;9.80;;
4732;SDS011;2380;53.668;10.008;2022-08-19T13:27:48;17.30;;;10.80;;
4732;SDS011;2380;53.668;10.008;2022-08-19T13:30:19;15.07;;;11.07;;
4732;SDS011;2380;53.668;10.008;2022-08-19T13:33:01;17.33;;;12.40;;
4732;SDS011;2380;53.668;10.008;2022-08-19T13:35:42;18.27;;;13.10;;
4732;SDS011;2380;53.668;10.008;2022-08-19T13:38:17;16.97;;;12.50;;
4732;SDS011;2380;53.668;10.008;2022-08-19T13:40:49;16.60;;;11.10;;
4732;SDS011;2380;53.668;10.008;2022-08-19T13:43:21;19.20;;;13.20;;
4732;SDS011;2380;53.668;10.008;2022-08-19T13:45:52;16.30;;;10.80;;
4732;SDS011;2380;53.668;10.008;2022-08-19T13:48:23;18.00;;;14.00;;
4732;SDS011;2380;53.668;10.008;2022-08-19T13:50:54;19.03;;;13.10;;
4732;SDS011;2380;53.668;10.008;2022-08-19T13:53:27;17.90;;;12.60;;
4732;SDS011;2380;53.668;10.008;2022-08-19T13:55:57;15.70;;;11.77;;
4732;SDS011;2380;53.668;10.008;2022-08-19T13:58:26;45.37;;;20.17;;
4732;SDS011;2380;53.668;10.008;2022-08-19T14:00:57;21.23;;;14.23;;
4732;SDS011;2380;53.668;10.008;2022-08-19T14:03:28;17.07;;;11.73;;
4732;SDS011;2380;53.668;10.008;2022-08-19T14:05:57;25.20;;;14.03;;
4732;SDS011;2380;53.668;10.008;2022-08-19T14:08:30;16.80;;;10.33;;
4732;SDS011;2380;53.668;10.008;2022-08-19T14:10:59;15.80;;;10.50;;
4732;SDS011;2380;53.668;10.008;2022-08-19T14:13:32;17.43;;;13.73;;
4732;SDS011;2380;53.668;10.008;2022-08-19T14:16:05;17.03;;;13.10;;
4732;SDS011;2380;53.668;10.008;2022-08-19T14:18:36;23.33;;;14.70;;
4732;SDS011;2380;53.668;10.008;2022-08-19T14:21:06;14.20;;;10.90;;
4732;SDS011;2380;53.668;10.008;2022-08-19T14:23:38;14.50;;;11.83;;
4732;SDS011;2380;53.668;10.008;2022-08-19T14:26:08;14.70;;;12.10;;
4732;SDS011;2380;53.668;10.008;2022-08-19T14:28:39;14.00;;;10.53;;
4732;SDS011;2380;53.668;10.008;2022-08-19T14:31:09;35.47;;;18.20;;
4732;SDS011;2380;53.668;10.008;2022-08-19T14:33:42;22.53;;;14.70;;
4732;SDS011;2380;53.668;10.008;2022-08-19T14:36:12;27.47;;;18.13;;
4732;SDS011;2380;53.668;10.008;2022-08-19T14:38:44;22.00;;;15.53;;
4732;SDS011;2380;53.668;10.008;2022-08-19T14:41:15;18.80;;;14.80;;
4732;SDS011;2380;53.668;10.008;2022-08-19T14:43:47;19.00;;;14.67;;
4732;SDS011;2380;53.668;10.008;2022-08-19T14:46:18;18.70;;;14.70;;
4732;SDS011;2380;53.668;10.008;2022-08-19T14:48:50;17.60;;;13.60;;
4732;SDS011;2380;53.668;10.008;2022-08-19T14:51:22;19.10;;;14.50;;
4732;SDS011;2380;53.668;10.008;2022-08-19T14:53:55;118.13;;;41.83;;
4732;SDS011;2380;53.668;10.008;2022-08-19T14:56:27;76.47;;;29.70;;
4732;SDS011;2380;53.668;10.008;2022-08-19T14:58:58;19.40;;;14.17;;
4732;SDS011;2380;53.668;10.008;2022-08-19T15:01:28;26.80;;;17.23;;
4732;SDS011;2380;53.668;10.008;2022-08-19T15:03:57;20.40;;;13.90;;
4732;SDS011;2380;53.668;10.008;2022-08-19T15:06:27;17.23;;;13.53;;